CheckWX is a tool to help pilots better visualize weather data.  It is not intended as a substitute for an official pre-flight weather briefing.

05:09:19 UTC

LGLM TAF
Limnos Airport
Limnos Island, Greece
TAF LGLM 230200Z 2303/2312 03018KT 9999 FEW025

Mar-23@
03:00 UTC

Mar-23 @ 03:00 UTC

Mar-23@
12:00 UTC

Mar-23 @ 12:00 UTC

TAF LGLM 230200Z 2303/2312 03018KT 9999 FEW025
Wind
  • 030° at 18 KTS
Cloud Levels
  • Few at 2,500' AGL